Quaker Hill, CT (06375)

4:32 PM EDT on September 27, 2016 (GMT -0400)
Smith Cove | | Change Station

Elev 25 ft 41.40 °N, 72.11 °W | Updated 8 minutes ago

Partly Cloudy
Partly Cloudy
71.3 °F
Feels Like 72 °F
N
0.0
Wind Variable Wind from West
Gusts 1.0 mph

Today
High -- | Low -- °F
--% Chance of Precip.
Yesterday
High -- | Low -- °F
Precip. -- in
Pressure 29.89 in
Visibility 10.0 miles
Clouds Few 2100 ft
Heat Index 72 °F
Dew Point 65 °F
Humidity 79%
Rainfall 0.43 in
Snow Depth Not available.
6:41 AM 6:36 PM
Waning Crescent, 10% visible
METAR KGON 271956Z 20006KT 10SM FEW021 22/17 A2989 RMK AO2 SLP120 T02170167
Pressure 29.89 in
Visibility 10.0 miles
Clouds Few 2100 ft
Heat Index 72 °F
Dew Point 65 °F
Humidity 79%
Rainfall 0.43 in
Snow Depth Not available.
6:41 AM 6:36 PM
Waning Crescent, 10% visible
METAR KGON 271956Z 20006KT 10SM FEW021 22/17 A2989 RMK AO2 SLP120 T02170167

10-Day Weather Forecast

Almanac

Astronomy

Sep. 27, 2016 Rise Set
Actual Time
Civil Twilight
Nautical Twilight
Astronomical Twilight
Moon
Length of Visible Light
Length of Day
Tomorrow will be .
, % of the Moon is Illuminated

Today's Extremes

State Highs State Lows

Community

WunderPhotos

Upload Photos

1,942,168 photos uploaded!

WunderBlog® & News

Nearby

Air Quality

  Air Quality AQ Index Pollutant
Not available.

Snow Depth

Station Depth Elevation

Earthquake Activity

City Distance Mag. Time & Date
Minimum magnitude displayed is 2.5.

Coastal Water Temperatures

Place Temperature

Stations

Nearby Weather Stations

Station Location Temp. Windchill Dew Point Humidity Wind Precip. Elev Updated Type
                   

Watches & Warnings

There are currently no watches in effect.